Ivan Poddubny — UDVP — position and weather

sailwx.info

Track history (hours):
 
Tides and Currents Weather Stations Pressure Air Temp Water Temp Dewpoint Dewpoint Depression Visibility Wind Speed Wind Dir Waves Ship Positions

Ivan Poddubny

Last reported at 2017-Dec-16 15:01 UTC. Time now 2017-Dec-16 15:07 UTC.
Position N 45°24' E 036°42'.

; draft 5.8 m.

Type: Ship. MMSI: 273358190.

Date/timePositionNaut miles runAvg speedWind from/ knotsBaromVisibWave heightAir tempDewpointWater temp
2017-Dec-16 15:01N 45°24' E 036°42'0 0.0
2017-Dec-16 14:30N 45°24' E 036°42'0 0.0
2017-Dec-16 14:00N 45°24' E 036°42'0 0.0
2017-Dec-16 13:31N 45°24' E 036°42'0 0.0
2017-Dec-16 12:59N 45°24' E 036°42'0 0.0
2017-Dec-16 12:29N 45°24' E 036°42'0 0.0
2017-Dec-16 12:00N 45°24' E 036°42'0 0.0
2017-Dec-16 11:30N 45°24' E 036°42'0 0.0
2017-Dec-16 10:59N 45°24' E 036°42'0 0.0
2017-Dec-16 10:30N 45°24' E 036°42'0 0.0
2017-Dec-16 10:00N 45°24' E 036°42'0 0.0
2017-Dec-16 09:30N 45°24' E 036°42'0 0.0
2017-Dec-16 09:00N 45°24' E 036°42'0 0.0
2017-Dec-16 08:30N 45°24' E 036°42'0 0.0
2017-Dec-16 08:00N 45°24' E 036°42'0 0.0
2017-Dec-16 07:31N 45°24' E 036°42'0 0.0
2017-Dec-16 07:00N 45°24' E 036°42'0 0.1
2017-Dec-16 06:30N 45°24' E 036°42'0 0.0
2017-Dec-16 06:00N 45°24' E 036°42'0 0.0
2017-Dec-16 05:30N 45°24' E 036°42'0 0.0
2017-Dec-16 05:00N 45°24' E 036°42'0 0.0
2017-Dec-16 04:30N 45°24' E 036°42'0 0.0
2017-Dec-16 04:00N 45°24' E 036°42'0 0.0
2017-Dec-16 03:30N 45°24' E 036°42'0 0.0
2017-Dec-16 03:00N 45°24' E 036°42'0 0.0
2017-Dec-16 02:30N 45°24' E 036°42'0 0.0
2017-Dec-16 01:59N 45°24' E 036°42'0 0.0
2017-Dec-16 01:29N 45°24' E 036°42'2 3.3
2017-Dec-16 01:01N 45°23' E 036°40'4 7.7
2017-Dec-16 00:30N 45°20' E 036°36'5 9.0
2017-Dec-15 23:59N 45°18' E 036°30'4 8.1
2017-Dec-15 23:30N 45°15' E 036°27'4 3.1
2017-Dec-15 22:14N 45°11' E 036°29'0 0.0
2017-Dec-15 21:26N 45°11' E 036°29'0 0.0
2017-Dec-15 20:59N 45°11' E 036°29'0 0.0
2017-Dec-15 20:29N 45°11' E 036°29'0 0.0
2017-Dec-15 19:11N 45°11' E 036°29'  
2017-Dec-11 08:09N 45°11' E 036°34'1 3.4
2017-Dec-11 07:57N 45°10' E 036°33'1 0.2
2017-Dec-11 02:57N 45°10' E 036°34'0 0.0
2017-Dec-11 02:24N 45°10' E 036°34'0 0.0
2017-Dec-10 23:00N 45°10' E 036°34'0 0.0
2017-Dec-10 15:18N 45°10' E 036°34'0 0.0
2017-Dec-10 13:27N 45°10' E 036°34'0 0.0
2017-Dec-10 12:57N 45°10' E 036°34'0 0.0
2017-Dec-10 12:30N 45°10' E 036°34'0 0.0
2017-Dec-10 10:24N 45°10' E 036°34'0 0.0
2017-Dec-10 10:00N 45°10' E 036°34'0 0.0
2017-Dec-10 09:21N 45°10' E 036°34'0 0.0
2017-Dec-10 09:00N 45°10' E 036°34'0 0.0
2017-Dec-10 08:27N 45°10' E 036°34'0 0.0
2017-Dec-10 08:00N 45°10' E 036°34'0 0.0
2017-Dec-10 07:30N 45°10' E 036°34'0 0.0
2017-Dec-10 07:00N 45°10' E 036°34'0 0.0
2017-Dec-10 06:30N 45°10' E 036°34'0 0.0
2017-Dec-10 05:36N 45°10' E 036°34'0 0.0
2017-Dec-10 05:21N 45°10' E 036°34'0 0.0
2017-Dec-10 04:54N 45°10' E 036°34'0 0.0
2017-Dec-10 04:27N 45°10' E 036°34'0 0.0
2017-Dec-10 03:57N 45°10' E 036°34'0 0.0
2017-Dec-10 03:24N 45°10' E 036°34'0 0.0
2017-Dec-10 02:57N 45°10' E 036°34'0 0.0
2017-Dec-10 02:30N 45°10' E 036°34'0 0.0
2017-Dec-10 01:51N 45°10' E 036°34'0 0.0
2017-Dec-10 01:12N 45°10' E 036°34'0 0.0
2017-Dec-10 00:48N 45°10' E 036°34'0 0.0
2017-Dec-10 00:30N 45°10' E 036°34'0 0.0
2017-Dec-09 23:57N 45°10' E 036°34'0 0.0
2017-Dec-08 08:26N 45°10' E 036°34'0 0.0
2017-Dec-08 06:49N 45°10' E 036°34'0 0.0
2017-Dec-08 06:26N 45°10' E 036°34'0 0.0
2017-Dec-08 05:55N 45°10' E 036°34'0 0.0
2017-Dec-08 05:25N 45°10' E 036°34'0 0.0
2017-Dec-08 04:55N 45°10' E 036°34'0 0.0
2017-Dec-08 04:28N 45°10' E 036°34'0 0.0
2017-Dec-07 20:22N 45°10' E 036°34'0 0.0
2017-Dec-07 19:49N 45°10' E 036°34'0 0.0
2017-Dec-07 19:29N 45°10' E 036°34'0 0.0
2017-Dec-07 18:58N 45°10' E 036°34'0 0.0
2017-Dec-07 16:22N 45°10' E 036°34'0 0.0
2017-Dec-07 15:04N 45°10' E 036°34'0 0.0
2017-Dec-07 13:37N 45°10' E 036°34'0 0.0
2017-Dec-07 12:37N 45°10' E 036°34'0 0.0
2017-Dec-07 12:25N 45°10' E 036°34'0 0.0
2017-Dec-07 11:49N 45°10' E 036°34'0 0.0
2017-Dec-07 11:25N 45°10' E 036°34'0 0.0
2017-Dec-07 10:52N 45°10' E 036°34'0 0.0
2017-Dec-07 10:28N 45°10' E 036°34'0 0.0
2017-Dec-07 09:58N 45°10' E 036°34'0 0.0
2017-Dec-07 09:28N 45°10' E 036°34'0 0.0
2017-Dec-07 07:13N 45°10' E 036°34'0 0.0
2017-Dec-07 06:55N 45°10' E 036°34'0 0.0
2017-Dec-07 06:28N 45°10' E 036°34'0 0.0
2017-Dec-07 05:55N 45°10' E 036°34'0 0.0
2017-Dec-07 02:01N 45°10' E 036°34'0 0.0
2017-Dec-07 01:55N 45°10' E 036°34'0 0.0
2017-Dec-07 01:28N 45°10' E 036°34'0 0.0
2017-Dec-07 00:59N 45°10' E 036°34'0 0.0
2017-Dec-07 00:28N 45°10' E 036°34'  
Track history (hours):
 
Tides and Currents Weather Stations Pressure Air Temp Water Temp Dewpoint Dewpoint Depression Visibility Wind Speed Wind Dir Waves Ship Positions

Ivan Poddubny

Last reported at 2017-Dec-16 15:01 UTC. Time now 2017-Dec-16 15:07 UTC.
Position N 45°24' E 036°42'.

; draft 5.8 m.

Type: Ship. MMSI: 273358190.

Date/timePositionNaut miles runAvg speedWind from/ knotsBaromVisibWave heightAir tempDewpointWater temp
2017-Dec-16 15:01N 45°24' E 036°42'0 0.0
2017-Dec-16 14:30N 45°24' E 036°42'0 0.0
2017-Dec-16 14:00N 45°24' E 036°42'0 0.0
2017-Dec-16 13:31N 45°24' E 036°42'0 0.0
2017-Dec-16 12:59N 45°24' E 036°42'0 0.0
2017-Dec-16 12:29N 45°24' E 036°42'0 0.0
2017-Dec-16 12:00N 45°24' E 036°42'0 0.0
2017-Dec-16 11:30N 45°24' E 036°42'0 0.0
2017-Dec-16 10:59N 45°24' E 036°42'0 0.0
2017-Dec-16 10:30N 45°24' E 036°42'0 0.0
2017-Dec-16 10:00N 45°24' E 036°42'0 0.0
2017-Dec-16 09:30N 45°24' E 036°42'0 0.0
2017-Dec-16 09:00N 45°24' E 036°42'0 0.0
2017-Dec-16 08:30N 45°24' E 036°42'0 0.0
2017-Dec-16 08:00N 45°24' E 036°42'0 0.0
2017-Dec-16 07:31N 45°24' E 036°42'0 0.0
2017-Dec-16 07:00N 45°24' E 036°42'0 0.1
2017-Dec-16 06:30N 45°24' E 036°42'0 0.0
2017-Dec-16 06:00N 45°24' E 036°42'0 0.0
2017-Dec-16 05:30N 45°24' E 036°42'0 0.0
2017-Dec-16 05:00N 45°24' E 036°42'0 0.0
2017-Dec-16 04:30N 45°24' E 036°42'0 0.0
2017-Dec-16 04:00N 45°24' E 036°42'0 0.0
2017-Dec-16 03:30N 45°24' E 036°42'0 0.0
2017-Dec-16 03:00N 45°24' E 036°42'0 0.0
2017-Dec-16 02:30N 45°24' E 036°42'0 0.0
2017-Dec-16 01:59N 45°24' E 036°42'0 0.0
2017-Dec-16 01:29N 45°24' E 036°42'2 3.3
2017-Dec-16 01:01N 45°23' E 036°40'4 7.7
2017-Dec-16 00:30N 45°20' E 036°36'5 9.0
2017-Dec-15 23:59N 45°18' E 036°30'4 8.1
2017-Dec-15 23:30N 45°15' E 036°27'4 3.1
2017-Dec-15 22:14N 45°11' E 036°29'0 0.0
2017-Dec-15 21:26N 45°11' E 036°29'0 0.0
2017-Dec-15 20:59N 45°11' E 036°29'0 0.0
2017-Dec-15 20:29N 45°11' E 036°29'0 0.0
2017-Dec-15 19:11N 45°11' E 036°29'  
2017-Dec-11 08:09N 45°11' E 036°34'1 3.4
2017-Dec-11 07:57N 45°10' E 036°33'1 0.2
2017-Dec-11 02:57N 45°10' E 036°34'0 0.0
2017-Dec-11 02:24N 45°10' E 036°34'0 0.0
2017-Dec-10 23:00N 45°10' E 036°34'0 0.0
2017-Dec-10 15:18N 45°10' E 036°34'0 0.0
2017-Dec-10 13:27N 45°10' E 036°34'0 0.0
2017-Dec-10 12:57N 45°10' E 036°34'0 0.0
2017-Dec-10 12:30N 45°10' E 036°34'0 0.0
2017-Dec-10 10:24N 45°10' E 036°34'0 0.0
2017-Dec-10 10:00N 45°10' E 036°34'0 0.0
2017-Dec-10 09:21N 45°10' E 036°34'0 0.0
2017-Dec-10 09:00N 45°10' E 036°34'0 0.0
2017-Dec-10 08:27N 45°10' E 036°34'0 0.0
2017-Dec-10 08:00N 45°10' E 036°34'0 0.0
2017-Dec-10 07:30N 45°10' E 036°34'0 0.0
2017-Dec-10 07:00N 45°10' E 036°34'0 0.0
2017-Dec-10 06:30N 45°10' E 036°34'0 0.0
2017-Dec-10 05:36N 45°10' E 036°34'0 0.0
2017-Dec-10 05:21N 45°10' E 036°34'0 0.0
2017-Dec-10 04:54N 45°10' E 036°34'0 0.0
2017-Dec-10 04:27N 45°10' E 036°34'0 0.0
2017-Dec-10 03:57N 45°10' E 036°34'0 0.0
2017-Dec-10 03:24N 45°10' E 036°34'0 0.0
2017-Dec-10 02:57N 45°10' E 036°34'0 0.0
2017-Dec-10 02:30N 45°10' E 036°34'0 0.0
2017-Dec-10 01:51N 45°10' E 036°34'0 0.0
2017-Dec-10 01:12N 45°10' E 036°34'0 0.0
2017-Dec-10 00:48N 45°10' E 036°34'0 0.0
2017-Dec-10 00:30N 45°10' E 036°34'0 0.0
2017-Dec-09 23:57N 45°10' E 036°34'0 0.0
2017-Dec-08 08:26N 45°10' E 036°34'0 0.0
2017-Dec-08 06:49N 45°10' E 036°34'0 0.0
2017-Dec-08 06:26N 45°10' E 036°34'0 0.0
2017-Dec-08 05:55N 45°10' E 036°34'0 0.0
2017-Dec-08 05:25N 45°10' E 036°34'0 0.0
2017-Dec-08 04:55N 45°10' E 036°34'0 0.0
2017-Dec-08 04:28N 45°10' E 036°34'0 0.0
2017-Dec-07 20:22N 45°10' E 036°34'0 0.0
2017-Dec-07 19:49N 45°10' E 036°34'0 0.0
2017-Dec-07 19:29N 45°10' E 036°34'0 0.0
2017-Dec-07 18:58N 45°10' E 036°34'0 0.0
2017-Dec-07 16:22N 45°10' E 036°34'0 0.0
2017-Dec-07 15:04N 45°10' E 036°34'0 0.0
2017-Dec-07 13:37N 45°10' E 036°34'0 0.0
2017-Dec-07 12:37N 45°10' E 036°34'0 0.0
2017-Dec-07 12:25N 45°10' E 036°34'0 0.0
2017-Dec-07 11:49N 45°10' E 036°34'0 0.0
2017-Dec-07 11:25N 45°10' E 036°34'0 0.0
2017-Dec-07 10:52N 45°10' E 036°34'0 0.0
2017-Dec-07 10:28N 45°10' E 036°34'0 0.0
2017-Dec-07 09:58N 45°10' E 036°34'0 0.0
2017-Dec-07 09:28N 45°10' E 036°34'0 0.0
2017-Dec-07 07:13N 45°10' E 036°34'0 0.0
2017-Dec-07 06:55N 45°10' E 036°34'0 0.0
2017-Dec-07 06:28N 45°10' E 036°34'0 0.0
2017-Dec-07 05:55N 45°10' E 036°34'0 0.0
2017-Dec-07 02:01N 45°10' E 036°34'0 0.0
2017-Dec-07 01:55N 45°10' E 036°34'0 0.0
2017-Dec-07 01:28N 45°10' E 036°34'0 0.0
2017-Dec-07 00:59N 45°10' E 036°34'0 0.0
2017-Dec-07 00:28N 45°10' E 036°34'  

Dump ship's entire track history